createdAt,value
2022-07-28T03:03:02.038Z,1.85
2022-07-28T03:05:30.373Z,1.70
2022-07-28T03:07:59.558Z,1.23
2022-07-28T03:10:34.227Z,1.90
2022-07-28T03:13:07.067Z,1.67
2022-07-28T03:15:35.476Z,1.83
2022-07-28T03:18:06.610Z,1.70
2022-07-28T03:20:34.908Z,1.80
2022-07-28T03:23:04.185Z,1.80
2022-07-28T03:25:39.097Z,1.52
2022-07-28T03:28:09.391Z,1.90
2022-07-28T03:30:42.699Z,1.90
2022-07-28T03:33:12.925Z,1.53
2022-07-28T03:35:44.808Z,2.00
2022-07-28T03:38:17.977Z,1.75
2022-07-28T03:40:47.443Z,1.95
2022-07-28T03:43:17.640Z,1.35
2022-07-28T03:45:47.708Z,1.58
2022-07-28T03:48:17.569Z,1.50
2022-07-28T03:50:45.413Z,1.77
2022-07-28T03:53:21.123Z,1.58
2022-07-28T03:55:51.766Z,1.88
2022-07-28T03:58:20.514Z,1.80
2022-07-28T04:00:49.687Z,1.50
2022-07-28T04:03:22.017Z,1.48
2022-07-28T04:06:05.194Z,1.23
2022-07-28T04:08:33.102Z,1.42
2022-07-28T04:11:03.609Z,1.50
2022-07-28T04:13:32.982Z,1.58
2022-07-28T04:16:00.986Z,1.77
2022-07-28T04:18:30.182Z,1.80
2022-07-28T04:20:58.125Z,1.80
2022-07-28T04:23:26.226Z,1.90
2022-07-28T04:25:54.397Z,2.13
2022-07-28T04:28:25.311Z,1.60
2022-07-28T04:30:53.125Z,1.40
2022-07-28T04:33:23.492Z,1.20
2022-07-28T04:35:53.890Z,1.30
2022-07-28T04:38:21.737Z,1.60
2022-07-28T04:40:51.921Z,1.17
2022-07-28T04:43:19.813Z,1.50
2022-07-28T04:45:53.804Z,1.23
2022-07-28T04:48:23.358Z,1.70
2022-07-28T04:50:53.652Z,1.70
2022-07-28T04:53:22.307Z,1.70
2022-07-28T04:55:51.719Z,1.47
2022-07-28T04:58:22.680Z,1.30
2022-07-28T05:00:51.986Z,1.80
2022-07-28T05:03:22.230Z,1.70
2022-07-28T05:05:53.917Z,1.67
2022-07-28T05:08:26.713Z,1.58
2022-07-28T05:10:56.541Z,1.40
2022-07-28T05:13:26.807Z,1.40
2022-07-28T05:15:59.551Z,1.50
2022-07-28T05:18:27.397Z,1.40
2022-07-28T05:20:55.309Z,1.17
2022-07-28T05:23:23.083Z,2.03
2022-07-28T05:25:52.543Z,1.60
2022-07-28T05:28:20.738Z,2.03
2022-07-28T05:30:48.688Z,1.50
2022-07-28T05:33:16.695Z,1.30
2022-07-28T05:35:46.293Z,2.15
2022-07-28T05:38:14.444Z,2.10
2022-07-28T05:40:42.268Z,1.70
2022-07-28T05:43:11.726Z,2.00
2022-07-28T05:45:39.672Z,1.98
2022-07-28T05:48:08.072Z,2.05
2022-07-28T05:50:36.319Z,1.77
2022-07-28T05:53:04.460Z,2.20
2022-07-28T05:55:32.539Z,1.48
2022-07-28T05:58:01.251Z,2.85
2022-07-28T06:00:32.190Z,2.38
2022-07-28T06:03:02.947Z,2.25
2022-07-28T06:05:33.766Z,2.40
2022-07-28T06:08:01.576Z,2.22
2022-07-28T06:10:51.614Z,2.30
2022-07-28T06:13:20.321Z,2.03
2022-07-28T06:15:51.245Z,1.73
2022-07-28T06:18:19.539Z,2.00
2022-07-28T06:20:48.037Z,2.10
2022-07-28T06:23:20.410Z,2.72
2022-07-28T06:25:49.091Z,2.30
2022-07-28T06:28:18.784Z,2.40
2022-07-28T06:30:48.119Z,2.35
2022-07-28T06:33:19.393Z,2.65
2022-07-28T06:35:51.159Z,2.38
2022-07-28T06:38:20.266Z,2.45
2022-07-28T06:40:48.263Z,2.47
2022-07-28T06:43:16.245Z,2.90
2022-07-28T06:45:45.023Z,2.90
2022-07-28T06:48:13.747Z,2.97
2022-07-28T06:50:43.718Z,2.80
2022-07-28T06:53:11.695Z,2.73
2022-07-28T06:55:41.276Z,3.05
2022-07-28T06:58:09.643Z,3.20
2022-07-28T07:00:37.583Z,3.37
2022-07-28T07:03:09.598Z,2.33
2022-07-28T07:05:38.133Z,3.30
2022-07-28T07:08:07.647Z,3.35
2022-07-28T07:10:37.766Z,3.58
2022-07-28T07:13:05.624Z,3.22
2022-07-28T07:15:35.045Z,2.80
2022-07-28T07:18:05.792Z,2.90
2022-07-28T07:20:33.682Z,4.27
2022-07-28T07:23:02.030Z,3.33
2022-07-28T07:25:31.356Z,3.70
2022-07-28T07:27:59.502Z,3.50
2022-07-28T07:30:27.995Z,3.30
2022-07-28T07:32:56.019Z,3.90
2022-07-28T07:35:23.921Z,3.75
2022-07-28T07:37:52.742Z,4.00
2022-07-28T07:40:20.558Z,3.85
2022-07-28T07:42:49.765Z,4.33
2022-07-28T07:45:17.577Z,3.70
2022-07-28T07:47:45.678Z,4.07
2022-07-28T07:50:13.862Z,4.20
2022-07-28T07:52:41.743Z,4.40
2022-07-28T07:55:11.775Z,4.15
2022-07-28T07:57:39.571Z,4.20
2022-07-28T08:00:28.048Z,4.40
2022-07-28T08:02:57.256Z,4.05
2022-07-28T08:05:34.797Z,4.63
2022-07-28T08:08:06.436Z,4.30
2022-07-28T08:10:34.791Z,4.13
2022-07-28T08:13:03.119Z,4.10
2022-07-28T08:15:33.635Z,3.90
2022-07-28T08:18:05.074Z,4.32
2022-07-28T08:20:33.288Z,4.15
2022-07-28T08:23:01.824Z,4.03
2022-07-28T08:25:30.050Z,4.20
2022-07-28T08:27:57.921Z,4.63
2022-07-28T08:30:32.364Z,4.87
2022-07-28T08:33:03.077Z,4.33
2022-07-28T08:35:34.298Z,4.50
2022-07-28T08:38:04.742Z,4.35
2022-07-28T08:40:33.397Z,4.15
2022-07-28T08:43:16.296Z,4.30
2022-07-28T08:45:48.961Z,4.23
2022-07-28T08:48:19.212Z,4.40
2022-07-28T08:50:48.421Z,4.80
2022-07-28T08:53:17.678Z,4.50
2022-07-28T08:55:45.969Z,4.63
2022-07-28T08:58:16.052Z,4.05
2022-07-28T09:00:44.008Z,4.00
2022-07-28T09:03:13.905Z,3.78
2022-07-28T09:05:46.706Z,4.03
2022-07-28T09:08:18.083Z,3.70
2022-07-28T09:10:46.042Z,4.00
2022-07-28T09:13:16.977Z,4.00
2022-07-28T09:15:46.085Z,4.50
2022-07-28T09:18:14.440Z,4.33
2022-07-28T09:20:45.170Z,4.07
2022-07-28T09:23:41.706Z,3.93
2022-07-28T09:26:11.480Z,4.57
2022-07-28T09:28:49.408Z,4.30
2022-07-28T09:31:17.863Z,4.10
2022-07-28T09:34:01.349Z,4.10
2022-07-28T09:36:30.032Z,4.15
2022-07-28T09:38:59.351Z,4.03
2022-07-28T09:41:27.168Z,4.72
2022-07-28T09:43:55.903Z,4.00
2022-07-28T09:46:26.000Z,4.70
2022-07-28T09:48:58.163Z,4.60
2022-07-28T09:51:30.755Z,4.47
2022-07-28T09:54:10.330Z,4.43
2022-07-28T09:56:40.521Z,3.97
2022-07-28T09:59:09.424Z,4.43
2022-07-28T10:01:52.233Z,4.40
2022-07-28T10:04:31.967Z,3.90
2022-07-28T10:07:09.661Z,3.60
2022-07-28T10:09:41.959Z,4.23
2022-07-28T10:12:16.148Z,3.53
2022-07-28T10:14:46.194Z,4.13
2022-07-28T10:17:24.598Z,4.13
2022-07-28T10:19:54.288Z,3.70
2022-07-28T10:22:25.171Z,5.05
2022-07-28T10:24:57.531Z,3.97
2022-07-28T10:27:26.370Z,4.40
2022-07-28T10:29:59.089Z,3.95
2022-07-28T10:32:29.648Z,4.00
2022-07-28T10:35:02.540Z,3.97
2022-07-28T10:37:32.623Z,3.97
2022-07-28T10:40:10.360Z,4.10
2022-07-28T10:42:40.690Z,4.00
2022-07-28T10:45:11.298Z,4.25
2022-07-28T10:47:39.249Z,3.60
2022-07-28T10:50:08.644Z,3.80
2022-07-28T10:52:47.361Z,3.73
2022-07-28T10:55:32.244Z,4.00
2022-07-28T10:58:12.010Z,4.10
2022-07-28T11:01:01.846Z,4.07
2022-07-28T11:03:42.461Z,4.05
2022-07-28T11:06:28.456Z,4.45
2022-07-28T11:08:57.150Z,4.05
2022-07-28T11:11:49.880Z,3.22
2022-07-28T11:14:37.040Z,3.70
2022-07-28T11:17:24.301Z,4.17
2022-07-28T11:20:27.299Z,3.85
2022-07-28T11:22:51.756Z,3.90
2022-07-28T11:25:22.228Z,3.80
2022-07-28T11:28:07.327Z,3.87
2022-07-28T11:30:55.259Z,3.90
2022-07-28T11:33:24.831Z,3.60
2022-07-28T11:36:00.595Z,3.50
2022-07-28T11:38:30.352Z,3.38
2022-07-28T11:40:58.477Z,3.92
2022-07-28T11:43:39.672Z,3.80
2022-07-28T11:46:40.449Z,4.00
2022-07-28T11:49:28.695Z,4.15
2022-07-28T11:52:23.474Z,3.88
2022-07-28T11:54:56.528Z,3.90
2022-07-28T11:57:26.812Z,4.00
2022-07-28T12:00:01.864Z,3.95
2022-07-28T12:02:35.371Z,3.97
2022-07-28T12:05:11.923Z,4.30
2022-07-28T12:07:42.715Z,4.03
2022-07-28T12:10:54.644Z,4.10
2022-07-28T12:13:28.551Z,4.07
2022-07-28T12:15:57.922Z,4.03
2022-07-28T12:18:26.851Z,3.07
2022-07-28T12:20:55.555Z,3.70
2022-07-28T12:23:39.161Z,3.85
2022-07-28T12:26:31.231Z,3.90
2022-07-28T12:29:02.752Z,3.60
2022-07-28T12:31:38.179Z,4.03
2022-07-28T12:34:07.775Z,3.47
2022-07-28T12:36:35.817Z,3.50
2022-07-28T12:39:04.029Z,3.78
2022-07-28T12:41:34.469Z,3.58
2022-07-28T12:44:05.631Z,3.33
2022-07-28T12:46:34.238Z,3.28
2022-07-28T12:49:06.401Z,3.70
2022-07-28T12:51:35.612Z,3.28
2022-07-28T12:54:04.688Z,3.50
2022-07-28T12:56:33.141Z,3.30
2022-07-28T12:59:10.279Z,3.10
2022-07-28T13:01:49.136Z,3.10
2022-07-28T13:04:37.951Z,3.25
2022-07-28T13:07:09.589Z,2.78
2022-07-28T13:09:39.671Z,3.20
2022-07-28T13:12:16.364Z,3.17
2022-07-28T13:14:45.958Z,2.93
2022-07-28T13:17:14.456Z,3.40
2022-07-28T13:19:45.385Z,3.30
2022-07-28T13:22:13.257Z,3.63
2022-07-28T13:24:41.336Z,3.60
2022-07-28T13:27:09.177Z,3.35
2022-07-28T13:29:37.068Z,3.55
2022-07-28T13:32:05.128Z,3.17
2022-07-28T13:34:35.499Z,3.33
2022-07-28T13:37:04.797Z,2.90
2022-07-28T13:39:32.643Z,2.90
2022-07-28T13:42:00.790Z,3.45
2022-07-28T13:44:35.416Z,3.00
2022-07-28T13:47:05.887Z,3.10
2022-07-28T13:49:37.643Z,3.30
2022-07-28T13:52:13.116Z,2.90
2022-07-28T13:54:41.287Z,3.30
2022-07-28T13:57:09.189Z,3.30
2022-07-28T13:59:38.664Z,3.30
2022-07-28T14:02:20.069Z,3.33
2022-07-28T14:04:50.147Z,3.00
2022-07-28T14:07:20.669Z,3.10
2022-07-28T14:09:52.044Z,3.20
2022-07-28T14:12:20.361Z,2.92
2022-07-28T14:14:48.920Z,3.17
2022-07-28T14:20:13.996Z,3.05
2022-07-28T14:22:43.773Z,3.20
2022-07-28T14:25:20.952Z,3.27
2022-07-28T14:27:50.759Z,3.13
2022-07-28T14:30:19.427Z,3.33
2022-07-28T14:32:49.755Z,3.60
2022-07-28T14:35:17.680Z,3.42
2022-07-28T14:38:35.140Z,3.00
2022-07-28T14:40:39.522Z,3.13
2022-07-28T14:43:08.065Z,3.35
2022-07-28T14:46:00.551Z,3.30
2022-07-28T14:48:24.379Z,3.30
2022-07-28T14:50:55.278Z,3.35
2022-07-28T14:53:24.677Z,2.73
2022-07-28T14:55:56.181Z,3.60
2022-07-28T14:58:24.156Z,3.03
2022-07-28T15:00:52.045Z,3.40
2022-07-28T15:03:19.937Z,3.15
2022-07-28T15:05:47.945Z,3.50
2022-07-28T15:08:15.856Z,3.30
2022-07-28T15:10:45.060Z,3.47
2022-07-28T15:13:17.261Z,3.23
2022-07-28T15:15:47.598Z,3.20
2022-07-28T15:18:15.532Z,2.80
2022-07-28T15:20:43.814Z,3.05
2022-07-28T15:23:12.342Z,3.27
2022-07-28T15:25:40.442Z,3.00
2022-07-28T15:28:09.599Z,2.97
2022-07-28T15:30:49.191Z,3.38
2022-07-28T15:33:17.903Z,3.20
2022-07-28T15:35:58.263Z,2.97
2022-07-28T15:38:28.551Z,3.05
2022-07-28T15:40:58.901Z,3.20
2022-07-28T15:43:28.250Z,2.90
2022-07-28T15:45:57.377Z,3.17
2022-07-28T15:48:25.346Z,3.00
2022-07-28T15:50:53.158Z,3.08
2022-07-28T15:53:21.349Z,2.92
2022-07-28T15:55:51.537Z,3.00
2022-07-28T15:58:20.623Z,3.00
2022-07-28T16:00:50.091Z,2.65
2022-07-28T16:03:18.016Z,3.17
2022-07-28T16:05:49.551Z,3.10
2022-07-28T16:08:22.824Z,3.05
2022-07-28T16:10:52.439Z,3.00
2022-07-28T16:13:28.664Z,2.53
2022-07-28T16:16:07.303Z,3.08
2022-07-28T16:18:36.475Z,3.03
2022-07-28T16:21:04.991Z,3.45
2022-07-28T16:23:36.046Z,3.40
2022-07-28T16:26:07.475Z,3.10
2022-07-28T16:28:35.667Z,3.00
2022-07-28T16:31:05.142Z,2.80
2022-07-28T16:33:33.989Z,2.90
2022-07-28T16:36:02.583Z,3.00
2022-07-28T16:38:30.831Z,3.40
2022-07-28T16:40:58.701Z,3.22
2022-07-28T16:43:26.707Z,3.30
2022-07-28T16:45:57.207Z,3.00
2022-07-28T16:48:26.509Z,3.05
2022-07-28T16:50:55.471Z,3.20
2022-07-28T16:53:23.412Z,2.90
2022-07-28T16:55:53.351Z,3.17
2022-07-28T16:58:22.246Z,2.70
2022-07-28T17:00:50.825Z,2.95
2022-07-28T17:03:18.812Z,2.90
2022-07-28T17:05:49.474Z,3.00
2022-07-28T17:08:17.356Z,3.00
2022-07-28T17:10:47.975Z,2.97
2022-07-28T17:13:19.525Z,2.80
2022-07-28T17:15:47.427Z,2.70
2022-07-28T17:18:15.382Z,2.70
2022-07-28T17:20:47.252Z,2.83
2022-07-28T17:23:16.518Z,2.78
2022-07-28T17:26:20.848Z,3.20
2022-07-28T17:28:35.280Z,2.92
2022-07-28T17:31:03.229Z,3.03
2022-07-28T17:33:31.485Z,3.20
2022-07-28T17:36:00.313Z,3.00
2022-07-28T17:38:33.258Z,3.30
2022-07-28T17:41:03.846Z,3.40
2022-07-28T17:43:32.846Z,3.13
2022-07-28T17:46:01.019Z,3.47
2022-07-28T17:48:31.733Z,3.30
2022-07-28T17:51:02.221Z,3.08
2022-07-28T17:53:33.694Z,3.00
2022-07-28T17:56:08.585Z,3.40
2022-07-28T17:58:37.117Z,3.10
2022-07-28T18:01:09.356Z,3.00
2022-07-28T18:03:58.202Z,3.20
2022-07-28T18:06:29.522Z,3.10
2022-07-28T18:09:06.284Z,3.35
2022-07-28T18:11:37.652Z,3.30
2022-07-28T18:14:24.216Z,3.10
2022-07-28T18:16:54.362Z,3.50
2022-07-28T18:19:22.645Z,3.42
2022-07-28T18:21:50.657Z,3.67
2022-07-28T18:24:22.437Z,3.50
2022-07-28T18:26:50.874Z,3.10
2022-07-28T18:29:21.014Z,3.22
2022-07-28T18:31:49.921Z,3.13
2022-07-28T18:34:18.268Z,3.17
2022-07-28T18:36:46.810Z,3.40
2022-07-28T18:39:14.685Z,3.38
2022-07-28T18:41:46.298Z,3.20
2022-07-28T18:44:16.161Z,3.50
2022-07-28T18:46:47.394Z,3.03
2022-07-28T18:49:15.725Z,3.58
2022-07-28T18:51:45.404Z,3.10
2022-07-28T18:54:17.627Z,3.35
2022-07-28T18:56:48.243Z,3.17
2022-07-28T18:59:16.312Z,3.10
2022-07-28T19:01:44.356Z,3.60
2022-07-28T19:04:14.712Z,3.38
2022-07-28T19:06:42.835Z,3.20
2022-07-28T19:09:10.848Z,3.30
2022-07-28T19:11:43.773Z,3.40
2022-07-28T19:14:15.858Z,3.22
2022-07-28T19:16:44.400Z,3.33
2022-07-28T19:19:15.425Z,3.17
2022-07-28T19:21:43.818Z,3.45
2022-07-28T19:24:13.272Z,3.13
2022-07-28T19:26:41.924Z,3.60
2022-07-28T19:29:10.079Z,3.55
2022-07-28T19:31:40.106Z,3.35
2022-07-28T19:34:08.512Z,3.40
2022-07-28T19:36:37.516Z,3.50
2022-07-28T19:39:05.463Z,3.25
2022-07-28T19:41:33.399Z,3.60
2022-07-28T19:44:01.278Z,3.03
2022-07-28T19:46:30.725Z,3.45
2022-07-28T19:49:00.104Z,2.85
2022-07-28T19:51:28.215Z,3.30
2022-07-28T19:53:58.490Z,3.33
2022-07-28T19:56:31.469Z,3.13
2022-07-28T19:59:00.000Z,2.47
2022-07-28T20:01:28.052Z,2.40
2022-07-28T20:04:03.512Z,2.72
2022-07-28T20:06:34.700Z,3.10
2022-07-28T20:09:02.933Z,3.57
2022-07-28T20:11:32.730Z,3.65
2022-07-28T20:14:00.896Z,2.90
2022-07-28T20:16:28.781Z,2.97
2022-07-28T20:18:57.702Z,3.65
2022-07-28T20:21:28.237Z,3.57
2022-07-28T20:23:58.163Z,3.50
2022-07-28T20:26:26.937Z,3.60
2022-07-28T20:28:54.994Z,3.47
2022-07-28T20:31:22.839Z,3.70
2022-07-28T20:33:50.792Z,4.00
2022-07-28T20:36:18.622Z,4.00
2022-07-28T20:38:46.533Z,3.70
2022-07-28T20:41:16.418Z,3.65
2022-07-28T20:43:44.260Z,3.87
2022-07-28T20:46:12.433Z,4.00
2022-07-28T20:48:40.414Z,4.63
2022-07-28T20:51:08.929Z,4.20
2022-07-28T20:53:37.352Z,4.20
2022-07-28T20:56:05.776Z,4.20
2022-07-28T20:58:34.979Z,3.70
2022-07-28T21:01:02.975Z,5.10
2022-07-28T21:03:31.068Z,4.27
2022-07-28T21:05:58.917Z,3.95
2022-07-28T21:08:26.836Z,4.30
2022-07-28T21:10:58.032Z,5.13
2022-07-28T21:13:26.056Z,5.60
2022-07-28T21:15:55.217Z,4.40
2022-07-28T21:18:23.060Z,3.50
2022-07-28T21:20:50.987Z,3.97
2022-07-28T21:23:19.282Z,3.67
2022-07-28T21:25:48.534Z,4.25
2022-07-28T21:28:34.099Z,5.07
2022-07-28T21:31:03.241Z,4.13
2022-07-28T21:33:31.139Z,4.90
2022-07-28T21:35:58.976Z,4.85
2022-07-28T21:38:26.813Z,4.85
2022-07-28T21:40:55.272Z,4.35
2022-07-28T21:43:23.053Z,4.03
2022-07-28T21:45:51.246Z,4.30
2022-07-28T21:48:23.729Z,3.80
2022-07-28T21:50:53.697Z,4.13
2022-07-28T21:53:21.866Z,4.13
2022-07-28T21:55:50.035Z,4.10
2022-07-28T21:58:17.913Z,3.70
2022-07-28T22:00:46.822Z,3.75
2022-07-28T22:03:14.989Z,4.20
2022-07-28T22:05:44.432Z,4.00
2022-07-28T22:08:12.195Z,4.00
2022-07-28T22:10:40.062Z,3.90
2022-07-28T22:13:10.292Z,3.83
2022-07-28T22:15:38.372Z,4.70
2022-07-28T22:18:06.579Z,4.60
2022-07-28T22:20:37.016Z,4.73
2022-07-28T22:23:11.565Z,5.10
2022-07-28T22:25:56.397Z,3.75
2022-07-28T22:28:29.462Z,4.13
2022-07-28T22:30:58.138Z,4.30
2022-07-28T22:33:28.605Z,3.40
2022-07-28T22:35:56.355Z,3.83
2022-07-28T22:38:27.915Z,4.40
2022-07-28T22:40:55.792Z,4.53
2022-07-28T22:43:23.617Z,4.45
2022-07-28T22:45:52.227Z,4.73
2022-07-28T22:48:22.327Z,4.28
2022-07-28T22:50:50.177Z,4.77
2022-07-28T22:53:18.097Z,4.30
2022-07-28T22:55:49.955Z,5.22
2022-07-28T22:58:17.845Z,4.28
2022-07-28T23:00:45.732Z,4.50
2022-07-28T23:03:15.946Z,4.45
2022-07-28T23:05:43.882Z,4.78
2022-07-28T23:08:13.856Z,4.80
2022-07-28T23:10:44.227Z,3.80
2022-07-28T23:13:13.432Z,3.67
2022-07-28T23:15:41.825Z,3.92
2022-07-28T23:18:10.631Z,4.30
2022-07-28T23:20:39.843Z,4.03
2022-07-28T23:23:08.469Z,5.27
2022-07-28T23:25:39.333Z,4.20
2022-07-28T23:28:09.890Z,4.83
2022-07-28T23:30:39.167Z,4.17
2022-07-28T23:33:07.179Z,4.40
2022-07-28T23:35:35.826Z,4.60
2022-07-28T23:38:04.232Z,3.40
2022-07-28T23:40:32.281Z,3.80
2022-07-28T23:43:00.355Z,4.10
2022-07-28T23:45:28.382Z,4.82
2022-07-28T23:47:58.933Z,4.67
2022-07-28T23:50:27.569Z,4.68
2022-07-28T23:52:55.461Z,3.80
2022-07-28T23:55:25.515Z,4.47
2022-07-28T23:57:53.440Z,3.63
